sensor_id;sensor_type;location;lat;lon;timestamp;temperature;humidity
7494;DHT22;3788;49.902;8.590;2023-05-15T00:00:15;13.20;99.90
7494;DHT22;3788;49.902;8.590;2023-05-15T00:02:43;13.20;99.90
7494;DHT22;3788;49.902;8.590;2023-05-15T00:05:10;13.20;99.90
7494;DHT22;3788;49.902;8.590;2023-05-15T00:07:39;13.20;99.90
7494;DHT22;3788;49.902;8.590;2023-05-15T00:10:07;13.20;99.90
7494;DHT22;3788;49.902;8.590;2023-05-15T00:12:34;13.20;99.90
7494;DHT22;3788;49.902;8.590;2023-05-15T00:15:01;13.20;99.90
7494;DHT22;3788;49.902;8.590;2023-05-15T00:17:27;13.20;99.90
7494;DHT22;3788;49.902;8.590;2023-05-15T00:19:54;13.20;99.90
7494;DHT22;3788;49.902;8.590;2023-05-15T00:22:23;13.20;99.90
7494;DHT22;3788;49.902;8.590;2023-05-15T00:24:52;13.20;99.90
7494;DHT22;3788;49.902;8.590;2023-05-15T00:27:18;13.20;99.90
7494;DHT22;3788;49.902;8.590;2023-05-15T00:29:45;13.10;99.90
7494;DHT22;3788;49.902;8.590;2023-05-15T00:32:11;13.10;99.90
7494;DHT22;3788;49.902;8.590;2023-05-15T00:34:38;12.90;99.90
7494;DHT22;3788;49.902;8.590;2023-05-15T00:37:05;12.90;99.90
7494;DHT22;3788;49.902;8.590;2023-05-15T00:39:32;12.90;99.90
7494;DHT22;3788;49.902;8.590;2023-05-15T00:42:01;12.80;99.90
7494;DHT22;3788;49.902;8.590;2023-05-15T00:44:30;12.80;99.90
7494;DHT22;3788;49.902;8.590;2023-05-15T00:46:58;12.80;99.90
7494;DHT22;3788;49.902;8.590;2023-05-15T00:49:25;12.80;99.90
7494;DHT22;3788;49.902;8.590;2023-05-15T00:51:54;12.90;99.90
7494;DHT22;3788;49.902;8.590;2023-05-15T00:54:21;12.90;99.90
7494;DHT22;3788;49.902;8.590;2023-05-15T00:56:48;12.90;99.90
7494;DHT22;3788;49.902;8.590;2023-05-15T00:59:17;12.80;99.90
7494;DHT22;3788;49.902;8.590;2023-05-15T01:01:45;12.80;99.90
7494;DHT22;3788;49.902;8.590;2023-05-15T01:04:12;12.80;99.90
7494;DHT22;3788;49.902;8.590;2023-05-15T01:06:38;12.70;99.90
7494;DHT22;3788;49.902;8.590;2023-05-15T01:09:06;12.70;99.90
7494;DHT22;3788;49.902;8.590;2023-05-15T01:11:36;12.70;99.90
7494;DHT22;3788;49.902;8.590;2023-05-15T01:14:04;12.60;99.90
7494;DHT22;3788;49.902;8.590;2023-05-15T01:16:33;12.60;99.90
7494;DHT22;3788;49.902;8.590;2023-05-15T01:19:01;12.60;99.90
7494;DHT22;3788;49.902;8.590;2023-05-15T01:21:52;12.60;99.90
7494;DHT22;3788;49.902;8.590;2023-05-15T01:24:42;12.60;99.90
7494;DHT22;3788;49.902;8.590;2023-05-15T01:27:18;12.60;99.90
7494;DHT22;3788;49.902;8.590;2023-05-15T01:29:54;12.50;99.90
7494;DHT22;3788;49.902;8.590;2023-05-15T01:32:24;12.40;99.90
7494;DHT22;3788;49.902;8.590;2023-05-15T01:35:00;12.40;99.90
7494;DHT22;3788;49.902;8.590;2023-05-15T01:37:28;12.30;99.90
7494;DHT22;3788;49.902;8.590;2023-05-15T01:39:59;12.30;99.90
7494;DHT22;3788;49.902;8.590;2023-05-15T01:42:31;12.30;99.90
7494;DHT22;3788;49.902;8.590;2023-05-15T01:45:00;12.30;99.90
7494;DHT22;3788;49.902;8.590;2023-05-15T01:47:32;12.30;99.90
7494;DHT22;3788;49.902;8.590;2023-05-15T01:50:01;12.20;99.90
7494;DHT22;3788;49.902;8.590;2023-05-15T01:52:29;12.20;99.90
7494;DHT22;3788;49.902;8.590;2023-05-15T01:54:59;12.10;99.90
7494;DHT22;3788;49.902;8.590;2023-05-15T01:57:28;12.10;99.90
7494;DHT22;3788;49.902;8.590;2023-05-15T01:59:56;12.10;99.90
7494;DHT22;3788;49.902;8.590;2023-05-15T02:02:25;12.00;99.90
7494;DHT22;3788;49.902;8.590;2023-05-15T02:04:52;12.00;99.90
7494;DHT22;3788;49.902;8.590;2023-05-15T02:07:19;12.00;99.90
7494;DHT22;3788;49.902;8.590;2023-05-15T02:09:46;12.00;99.90
7494;DHT22;3788;49.902;8.590;2023-05-15T02:12:14;11.90;99.90
7494;DHT22;3788;49.902;8.590;2023-05-15T02:14:42;11.90;99.90
7494;DHT22;3788;49.902;8.590;2023-05-15T02:17:10;11.90;99.90
7494;DHT22;3788;49.902;8.590;2023-05-15T02:19:37;11.90;99.90
7494;DHT22;3788;49.902;8.590;2023-05-15T02:22:03;12.00;99.90
7494;DHT22;3788;49.902;8.590;2023-05-15T02:24:30;12.00;99.90
7494;DHT22;3788;49.902;8.590;2023-05-15T02:27:01;12.00;99.90
7494;DHT22;3788;49.902;8.590;2023-05-15T02:29:35;12.00;99.90
7494;DHT22;3788;49.902;8.590;2023-05-15T02:32:11;12.00;99.90
7494;DHT22;3788;49.902;8.590;2023-05-15T02:34:51;11.90;99.90
7494;DHT22;3788;49.902;8.590;2023-05-15T02:37:25;11.90;99.90
7494;DHT22;3788;49.902;8.590;2023-05-15T02:39:53;11.90;99.90
7494;DHT22;3788;49.902;8.590;2023-05-15T02:42:23;11.80;99.90
7494;DHT22;3788;49.902;8.590;2023-05-15T02:44:52;11.80;99.90
7494;DHT22;3788;49.902;8.590;2023-05-15T02:47:20;11.80;99.90
7494;DHT22;3788;49.902;8.590;2023-05-15T02:49:48;11.80;99.90
7494;DHT22;3788;49.902;8.590;2023-05-15T02:52:15;11.80;99.90
7494;DHT22;3788;49.902;8.590;2023-05-15T02:54:42;11.80;99.90
7494;DHT22;3788;49.902;8.590;2023-05-15T02:57:08;11.80;99.90
7494;DHT22;3788;49.902;8.590;2023-05-15T02:59:35;11.80;99.90
7494;DHT22;3788;49.902;8.590;2023-05-15T03:02:02;11.90;99.90
7494;DHT22;3788;49.902;8.590;2023-05-15T03:04:31;11.90;99.90
7494;DHT22;3788;49.902;8.590;2023-05-15T03:06:57;11.90;99.90
7494;DHT22;3788;49.902;8.590;2023-05-15T03:09:24;11.80;99.90
7494;DHT22;3788;49.902;8.590;2023-05-15T03:11:50;11.80;99.90
7494;DHT22;3788;49.902;8.590;2023-05-15T03:14:17;11.70;99.90
7494;DHT22;3788;49.902;8.590;2023-05-15T03:16:44;11.60;99.90
7494;DHT22;3788;49.902;8.590;2023-05-15T03:19:11;11.60;99.90
7494;DHT22;3788;49.902;8.590;2023-05-15T03:21:39;11.60;99.90
7494;DHT22;3788;49.902;8.590;2023-05-15T03:24:06;11.50;99.90
7494;DHT22;3788;49.902;8.590;2023-05-15T03:26:32;11.50;99.90
7494;DHT22;3788;49.902;8.590;2023-05-15T03:29:00;11.60;99.90
7494;DHT22;3788;49.902;8.590;2023-05-15T03:31:26;11.60;99.90
7494;DHT22;3788;49.902;8.590;2023-05-15T03:33:53;11.60;99.90
7494;DHT22;3788;49.902;8.590;2023-05-15T03:36:20;11.60;99.90
7494;DHT22;3788;49.902;8.590;2023-05-15T03:38:48;11.60;99.90
7494;DHT22;3788;49.902;8.590;2023-05-15T03:41:14;11.60;99.90
7494;DHT22;3788;49.902;8.590;2023-05-15T03:43:41;11.60;99.90
7494;DHT22;3788;49.902;8.590;2023-05-15T03:46:08;11.60;99.90
7494;DHT22;3788;49.902;8.590;2023-05-15T03:48:34;11.60;99.90
7494;DHT22;3788;49.902;8.590;2023-05-15T03:51:01;11.60;99.90
7494;DHT22;3788;49.902;8.590;2023-05-15T03:53:27;11.60;99.90
7494;DHT22;3788;49.902;8.590;2023-05-15T03:55:56;11.60;99.90
7494;DHT22;3788;49.902;8.590;2023-05-15T03:58:22;11.60;99.90
7494;DHT22;3788;49.902;8.590;2023-05-15T04:00:49;11.60;99.90
7494;DHT22;3788;49.902;8.590;2023-05-15T04:03:15;11.60;99.90
7494;DHT22;3788;49.902;8.590;2023-05-15T04:05:43;11.60;99.90
7494;DHT22;3788;49.902;8.590;2023-05-15T04:08:14;11.60;99.90
7494;DHT22;3788;49.902;8.590;2023-05-15T04:10:40;11.60;99.90
7494;DHT22;3788;49.902;8.590;2023-05-15T04:13:08;11.60;99.90
7494;DHT22;3788;49.902;8.590;2023-05-15T04:15:35;11.60;99.90
7494;DHT22;3788;49.902;8.590;2023-05-15T04:18:02;11.60;99.90
7494;DHT22;3788;49.902;8.590;2023-05-15T04:20:29;11.60;99.90
7494;DHT22;3788;49.902;8.590;2023-05-15T04:22:56;11.60;99.90
7494;DHT22;3788;49.902;8.590;2023-05-15T04:25:23;11.60;99.90
7494;DHT22;3788;49.902;8.590;2023-05-15T04:27:49;11.70;99.90
7494;DHT22;3788;49.902;8.590;2023-05-15T04:30:17;11.70;99.90
7494;DHT22;3788;49.902;8.590;2023-05-15T04:32:45;11.80;99.90
7494;DHT22;3788;49.902;8.590;2023-05-15T04:35:11;11.80;99.90
7494;DHT22;3788;49.902;8.590;2023-05-15T04:37:40;11.90;99.90
7494;DHT22;3788;49.902;8.590;2023-05-15T04:40:08;11.80;99.90
7494;DHT22;3788;49.902;8.590;2023-05-15T04:42:35;11.90;99.90
7494;DHT22;3788;49.902;8.590;2023-05-15T04:45:03;12.00;99.90
7494;DHT22;3788;49.902;8.590;2023-05-15T04:47:32;12.10;99.90
7494;DHT22;3788;49.902;8.590;2023-05-15T04:49:58;12.10;99.90
7494;DHT22;3788;49.902;8.590;2023-05-15T04:52:25;12.10;99.90
7494;DHT22;3788;49.902;8.590;2023-05-15T04:54:51;12.20;99.90
7494;DHT22;3788;49.902;8.590;2023-05-15T04:57:20;12.30;99.90
7494;DHT22;3788;49.902;8.590;2023-05-15T04:59:46;12.30;99.90
7494;DHT22;3788;49.902;8.590;2023-05-15T05:02:13;12.40;99.90
7494;DHT22;3788;49.902;8.590;2023-05-15T05:04:42;12.40;99.90
7494;DHT22;3788;49.902;8.590;2023-05-15T05:07:09;12.50;99.90
7494;DHT22;3788;49.902;8.590;2023-05-15T05:09:37;12.60;99.90
7494;DHT22;3788;49.902;8.590;2023-05-15T05:12:04;12.70;99.90
7494;DHT22;3788;49.902;8.590;2023-05-15T05:14:31;12.70;99.90
7494;DHT22;3788;49.902;8.590;2023-05-15T05:16:58;12.70;99.90
7494;DHT22;3788;49.902;8.590;2023-05-15T05:19:24;12.70;99.90
7494;DHT22;3788;49.902;8.590;2023-05-15T05:21:53;12.80;99.90
7494;DHT22;3788;49.902;8.590;2023-05-15T05:24:22;12.90;99.90
7494;DHT22;3788;49.902;8.590;2023-05-15T05:26:49;13.00;99.90
7494;DHT22;3788;49.902;8.590;2023-05-15T05:29:15;13.10;99.90
7494;DHT22;3788;49.902;8.590;2023-05-15T05:31:42;13.10;99.90
7494;DHT22;3788;49.902;8.590;2023-05-15T05:34:11;13.10;99.90
7494;DHT22;3788;49.902;8.590;2023-05-15T05:36:38;13.20;99.90
7494;DHT22;3788;49.902;8.590;2023-05-15T05:39:05;13.20;99.90
7494;DHT22;3788;49.902;8.590;2023-05-15T05:41:32;13.30;99.90
7494;DHT22;3788;49.902;8.590;2023-05-15T05:43:59;13.40;99.90
7494;DHT22;3788;49.902;8.590;2023-05-15T05:46:25;13.50;99.90
7494;DHT22;3788;49.902;8.590;2023-05-15T05:48:52;13.50;99.90
7494;DHT22;3788;49.902;8.590;2023-05-15T05:51:19;13.70;99.90
7494;DHT22;3788;49.902;8.590;2023-05-15T05:53:45;13.70;99.90
7494;DHT22;3788;49.902;8.590;2023-05-15T05:56:13;13.80;99.90
7494;DHT22;3788;49.902;8.590;2023-05-15T05:58:40;14.00;99.90
7494;DHT22;3788;49.902;8.590;2023-05-15T06:01:07;14.10;99.90
7494;DHT22;3788;49.902;8.590;2023-05-15T06:03:34;14.20;99.90
7494;DHT22;3788;49.902;8.590;2023-05-15T06:06:01;14.30;99.90
7494;DHT22;3788;49.902;8.590;2023-05-15T06:08:28;14.40;99.90
7494;DHT22;3788;49.902;8.590;2023-05-15T06:10:54;14.50;99.90
7494;DHT22;3788;49.902;8.590;2023-05-15T06:13:22;14.60;99.90
7494;DHT22;3788;49.902;8.590;2023-05-15T06:15:50;14.70;99.90
7494;DHT22;3788;49.902;8.590;2023-05-15T06:18:16;14.80;99.90
7494;DHT22;3788;49.902;8.590;2023-05-15T06:20:43;14.80;99.90
7494;DHT22;3788;49.902;8.590;2023-05-15T06:23:11;14.90;99.90
7494;DHT22;3788;49.902;8.590;2023-05-15T06:25:38;14.90;99.90
7494;DHT22;3788;49.902;8.590;2023-05-15T06:28:05;15.00;99.90
7494;DHT22;3788;49.902;8.590;2023-05-15T06:30:33;15.10;99.90
7494;DHT22;3788;49.902;8.590;2023-05-15T06:33:00;15.20;99.90
7494;DHT22;3788;49.902;8.590;2023-05-15T06:35:26;15.20;99.90
7494;DHT22;3788;49.902;8.590;2023-05-15T06:37:53;15.30;99.90
7494;DHT22;3788;49.902;8.590;2023-05-15T06:40:20;15.40;99.90
7494;DHT22;3788;49.902;8.590;2023-05-15T06:42:47;15.50;99.90
7494;DHT22;3788;49.902;8.590;2023-05-15T06:45:14;15.50;99.90
7494;DHT22;3788;49.902;8.590;2023-05-15T06:47:42;15.50;99.90
7494;DHT22;3788;49.902;8.590;2023-05-15T06:50:09;15.60;99.90
7494;DHT22;3788;49.902;8.590;2023-05-15T06:52:35;15.60;99.90
7494;DHT22;3788;49.902;8.590;2023-05-15T06:55:02;15.70;99.90
7494;DHT22;3788;49.902;8.590;2023-05-15T06:57:29;15.80;99.90
7494;DHT22;3788;49.902;8.590;2023-05-15T06:59:56;15.80;99.90
7494;DHT22;3788;49.902;8.590;2023-05-15T07:02:22;15.90;99.90
7494;DHT22;3788;49.902;8.590;2023-05-15T07:04:50;15.90;99.90
7494;DHT22;3788;49.902;8.590;2023-05-15T07:07:17;16.00;99.90
7494;DHT22;3788;49.902;8.590;2023-05-15T07:09:43;16.10;99.90
7494;DHT22;3788;49.902;8.590;2023-05-15T07:12:12;16.20;99.70
7494;DHT22;3788;49.902;8.590;2023-05-15T07:14:39;16.40;99.60
7494;DHT22;3788;49.902;8.590;2023-05-15T07:17:05;16.50;99.10
7494;DHT22;3788;49.902;8.590;2023-05-15T07:19:32;16.60;98.50
7494;DHT22;3788;49.902;8.590;2023-05-15T07:22:00;16.60;98.10
7494;DHT22;3788;49.902;8.590;2023-05-15T07:24:27;16.70;97.90
7494;DHT22;3788;49.902;8.590;2023-05-15T07:26:53;16.70;97.70
7494;DHT22;3788;49.902;8.590;2023-05-15T07:29:21;16.70;97.30
7494;DHT22;3788;49.902;8.590;2023-05-15T07:31:48;16.80;97.40
7494;DHT22;3788;49.902;8.590;2023-05-15T07:34:14;16.90;97.50
7494;DHT22;3788;49.902;8.590;2023-05-15T07:36:41;17.00;97.40
7494;DHT22;3788;49.902;8.590;2023-05-15T07:39:09;17.10;97.30
7494;DHT22;3788;49.902;8.590;2023-05-15T07:41:36;17.20;97.20
7494;DHT22;3788;49.902;8.590;2023-05-15T07:44:03;17.30;97.10
7494;DHT22;3788;49.902;8.590;2023-05-15T07:46:30;17.60;97.00
7494;DHT22;3788;49.902;8.590;2023-05-15T07:48:56;18.50;96.70
7494;DHT22;3788;49.902;8.590;2023-05-15T07:51:23;19.70;95.30
7494;DHT22;3788;49.902;8.590;2023-05-15T07:53:50;20.80;93.50
7494;DHT22;3788;49.902;8.590;2023-05-15T07:56:18;21.80;91.60
7494;DHT22;3788;49.902;8.590;2023-05-15T07:58:45;22.60;89.20
7494;DHT22;3788;49.902;8.590;2023-05-15T08:01:12;23.30;87.20
7494;DHT22;3788;49.902;8.590;2023-05-15T08:03:39;24.00;83.90
7494;DHT22;3788;49.902;8.590;2023-05-15T08:06:05;24.60;81.90
7494;DHT22;3788;49.902;8.590;2023-05-15T08:08:32;24.90;79.50
7494;DHT22;3788;49.902;8.590;2023-05-15T08:10:59;25.40;78.40
7494;DHT22;3788;49.902;8.590;2023-05-15T08:13:27;25.80;76.30
7494;DHT22;3788;49.902;8.590;2023-05-15T08:15:54;26.00;75.30
7494;DHT22;3788;49.902;8.590;2023-05-15T08:18:20;26.30;72.60
7494;DHT22;3788;49.902;8.590;2023-05-15T08:20:47;26.40;72.40
7494;DHT22;3788;49.902;8.590;2023-05-15T08:23:14;26.60;71.80
7494;DHT22;3788;49.902;8.590;2023-05-15T08:25:41;26.80;70.90
7494;DHT22;3788;49.902;8.590;2023-05-15T08:28:07;27.00;70.40
7494;DHT22;3788;49.902;8.590;2023-05-15T08:30:36;27.30;67.90
7494;DHT22;3788;49.902;8.590;2023-05-15T08:33:03;27.30;67.60
7494;DHT22;3788;49.902;8.590;2023-05-15T08:35:29;27.50;67.00
7494;DHT22;3788;49.902;8.590;2023-05-15T08:37:56;27.50;66.80
7494;DHT22;3788;49.902;8.590;2023-05-15T08:40:23;27.40;67.10
7494;DHT22;3788;49.902;8.590;2023-05-15T08:42:53;27.50;67.00
7494;DHT22;3788;49.902;8.590;2023-05-15T08:45:21;27.80;65.10
7494;DHT22;3788;49.902;8.590;2023-05-15T08:47:49;27.90;64.90
7494;DHT22;3788;49.902;8.590;2023-05-15T08:50:16;28.00;64.50
7494;DHT22;3788;49.902;8.590;2023-05-15T08:52:44;28.30;63.90
7494;DHT22;3788;49.902;8.590;2023-05-15T08:55:12;28.30;63.20
7494;DHT22;3788;49.902;8.590;2023-05-15T08:57:40;28.30;62.00
7494;DHT22;3788;49.902;8.590;2023-05-15T09:00:07;28.00;61.20
7494;DHT22;3788;49.902;8.590;2023-05-15T09:02:36;27.80;62.60
7494;DHT22;3788;49.902;8.590;2023-05-15T09:05:05;27.80;62.40
7494;DHT22;3788;49.902;8.590;2023-05-15T09:07:33;27.80;62.50
7494;DHT22;3788;49.902;8.590;2023-05-15T09:10:01;27.90;62.40
7494;DHT22;3788;49.902;8.590;2023-05-15T09:12:31;28.00;61.00
7494;DHT22;3788;49.902;8.590;2023-05-15T09:15:08;27.90;61.60
7494;DHT22;3788;49.902;8.590;2023-05-15T09:17:35;27.90;60.90
7494;DHT22;3788;49.902;8.590;2023-05-15T09:20:03;27.80;61.70
7494;DHT22;3788;49.902;8.590;2023-05-15T09:22:33;27.70;60.90
7494;DHT22;3788;49.902;8.590;2023-05-15T09:25:00;27.90;60.80
7494;DHT22;3788;49.902;8.590;2023-05-15T09:27:27;28.00;59.20
7494;DHT22;3788;49.902;8.590;2023-05-15T09:29:54;28.00;59.60
7494;DHT22;3788;49.902;8.590;2023-05-15T09:32:25;27.70;59.00
7494;DHT22;3788;49.902;8.590;2023-05-15T09:34:52;27.40;60.30
7494;DHT22;3788;49.902;8.590;2023-05-15T09:37:31;27.20;61.60
7494;DHT22;3788;49.902;8.590;2023-05-15T09:40:06;27.20;62.70
7494;DHT22;3788;49.902;8.590;2023-05-15T09:42:34;27.40;63.10
7494;DHT22;3788;49.902;8.590;2023-05-15T09:45:02;27.50;62.90
7494;DHT22;3788;49.902;8.590;2023-05-15T09:47:29;27.60;61.60
7494;DHT22;3788;49.902;8.590;2023-05-15T09:49:56;27.80;60.80
7494;DHT22;3788;49.902;8.590;2023-05-15T09:52:22;27.70;60.30
7494;DHT22;3788;49.902;8.590;2023-05-15T09:54:51;27.50;60.60
7494;DHT22;3788;49.902;8.590;2023-05-15T09:57:20;27.40;61.00
7494;DHT22;3788;49.902;8.590;2023-05-15T09:59:48;27.40;61.20
7494;DHT22;3788;49.902;8.590;2023-05-15T10:02:22;27.40;60.60
7494;DHT22;3788;49.902;8.590;2023-05-15T10:04:53;27.20;60.90
7494;DHT22;3788;49.902;8.590;2023-05-15T10:07:27;26.90;60.60
7494;DHT22;3788;49.902;8.590;2023-05-15T10:09:55;26.60;61.20
7494;DHT22;3788;49.902;8.590;2023-05-15T10:12:23;26.20;61.80
7494;DHT22;3788;49.902;8.590;2023-05-15T10:14:52;26.10;62.40
7494;DHT22;3788;49.902;8.590;2023-05-15T10:17:21;26.00;62.10
7494;DHT22;3788;49.902;8.590;2023-05-15T10:19:50;25.80;62.40
7494;DHT22;3788;49.902;8.590;2023-05-15T10:22:20;25.70;62.10
7494;DHT22;3788;49.902;8.590;2023-05-15T10:24:51;25.60;63.00
7494;DHT22;3788;49.902;8.590;2023-05-15T10:27:23;25.40;62.50
7494;DHT22;3788;49.902;8.590;2023-05-15T10:29:51;25.20;62.20
7494;DHT22;3788;49.902;8.590;2023-05-15T10:32:19;25.00;63.30
7494;DHT22;3788;49.902;8.590;2023-05-15T10:34:47;24.60;64.80
7494;DHT22;3788;49.902;8.590;2023-05-15T10:37:16;24.00;65.30
7494;DHT22;3788;49.902;8.590;2023-05-15T10:39:44;23.50;67.20
7494;DHT22;3788;49.902;8.590;2023-05-15T10:42:11;23.00;68.30
7494;DHT22;3788;49.902;8.590;2023-05-15T10:44:40;22.60;69.60
7494;DHT22;3788;49.902;8.590;2023-05-15T10:47:06;22.20;71.40
7494;DHT22;3788;49.902;8.590;2023-05-15T10:49:33;21.90;75.20
7494;DHT22;3788;49.902;8.590;2023-05-15T10:52:01;21.60;78.60
7494;DHT22;3788;49.902;8.590;2023-05-15T10:54:28;21.30;78.90
7494;DHT22;3788;49.902;8.590;2023-05-15T10:56:56;21.00;79.00
7494;DHT22;3788;49.902;8.590;2023-05-15T10:59:30;20.90;80.30
7494;DHT22;3788;49.902;8.590;2023-05-15T11:02:18;20.80;84.30
7494;DHT22;3788;49.902;8.590;2023-05-15T11:04:45;20.70;87.80
7494;DHT22;3788;49.902;8.590;2023-05-15T11:07:14;20.70;90.70
7494;DHT22;3788;49.902;8.590;2023-05-15T11:09:42;20.80;91.50
7494;DHT22;3788;49.902;8.590;2023-05-15T11:12:09;20.80;92.20
7494;DHT22;3788;49.902;8.590;2023-05-15T11:14:38;20.90;92.70
7494;DHT22;3788;49.902;8.590;2023-05-15T11:17:08;20.90;93.10
7494;DHT22;3788;49.902;8.590;2023-05-15T11:19:37;21.00;93.50
7494;DHT22;3788;49.902;8.590;2023-05-15T11:22:16;21.00;93.10
7494;DHT22;3788;49.902;8.590;2023-05-15T11:24:48;21.10;92.50
7494;DHT22;3788;49.902;8.590;2023-05-15T11:27:17;21.00;92.20
7494;DHT22;3788;49.902;8.590;2023-05-15T11:30:07;21.00;92.10
7494;DHT22;3788;49.902;8.590;2023-05-15T11:32:48;20.90;91.40
7494;DHT22;3788;49.902;8.590;2023-05-15T11:35:21;20.90;91.40
7494;DHT22;3788;49.902;8.590;2023-05-15T11:37:50;20.90;91.40
7494;DHT22;3788;49.902;8.590;2023-05-15T11:40:19;20.90;91.40
7494;DHT22;3788;49.902;8.590;2023-05-15T11:43:04;21.00;91.40
7494;DHT22;3788;49.902;8.590;2023-05-15T11:45:32;21.10;91.60
7494;DHT22;3788;49.902;8.590;2023-05-15T11:48:03;21.10;91.70
7494;DHT22;3788;49.902;8.590;2023-05-15T11:50:31;21.20;91.70
7494;DHT22;3788;49.902;8.590;2023-05-15T11:53:01;21.40;91.60
7494;DHT22;3788;49.902;8.590;2023-05-15T11:55:30;21.40;90.80
7494;DHT22;3788;49.902;8.590;2023-05-15T11:57:57;21.50;90.00
7494;DHT22;3788;49.902;8.590;2023-05-15T12:00:24;21.50;88.10
7494;DHT22;3788;49.902;8.590;2023-05-15T12:02:50;21.40;86.80
7494;DHT22;3788;49.902;8.590;2023-05-15T12:05:19;21.30;85.10
7494;DHT22;3788;49.902;8.590;2023-05-15T12:07:46;21.20;83.40
7494;DHT22;3788;49.902;8.590;2023-05-15T12:10:13;21.10;81.30
7494;DHT22;3788;49.902;8.590;2023-05-15T12:12:40;20.90;78.00
7494;DHT22;3788;49.902;8.590;2023-05-15T12:15:11;20.80;78.60
7494;DHT22;3788;49.902;8.590;2023-05-15T12:17:39;20.70;79.10
7494;DHT22;3788;49.902;8.590;2023-05-15T12:20:08;20.70;79.00
7494;DHT22;3788;49.902;8.590;2023-05-15T12:22:38;20.70;78.90
7494;DHT22;3788;49.902;8.590;2023-05-15T12:25:06;20.90;79.30
7494;DHT22;3788;49.902;8.590;2023-05-15T12:27:34;21.00;79.30
7494;DHT22;3788;49.902;8.590;2023-05-15T12:30:02;21.20;79.10
7494;DHT22;3788;49.902;8.590;2023-05-15T12:32:30;21.30;77.40
7494;DHT22;3788;49.902;8.590;2023-05-15T12:34:58;21.40;76.50
7494;DHT22;3788;49.902;8.590;2023-05-15T12:37:25;21.40;76.30
7494;DHT22;3788;49.902;8.590;2023-05-15T12:39:55;21.40;75.90
7494;DHT22;3788;49.902;8.590;2023-05-15T12:42:21;21.40;75.50
7494;DHT22;3788;49.902;8.590;2023-05-15T12:44:53;21.30;74.50
7494;DHT22;3788;49.902;8.590;2023-05-15T12:47:23;21.20;73.40
7494;DHT22;3788;49.902;8.590;2023-05-15T12:49:54;21.20;70.90
7494;DHT22;3788;49.902;8.590;2023-05-15T12:52:21;21.20;71.50
7494;DHT22;3788;49.902;8.590;2023-05-15T12:54:49;21.40;70.00
7494;DHT22;3788;49.902;8.590;2023-05-15T12:57:17;21.60;70.00
7494;DHT22;3788;49.902;8.590;2023-05-15T12:59:44;21.80;68.90
7494;DHT22;3788;49.902;8.590;2023-05-15T13:02:11;22.00;68.40
7494;DHT22;3788;49.902;8.590;2023-05-15T13:04:39;22.20;68.00
7494;DHT22;3788;49.902;8.590;2023-05-15T13:07:06;22.30;68.10
7494;DHT22;3788;49.902;8.590;2023-05-15T13:09:32;22.20;68.10
7494;DHT22;3788;49.902;8.590;2023-05-15T13:12:01;22.10;68.30
7494;DHT22;3788;49.902;8.590;2023-05-15T13:14:31;22.00;68.00
7494;DHT22;3788;49.902;8.590;2023-05-15T13:16:59;21.90;67.10
7494;DHT22;3788;49.902;8.590;2023-05-15T13:19:27;21.50;74.20
7494;DHT22;3788;49.902;8.590;2023-05-15T13:21:53;21.20;77.30
7494;DHT22;3788;49.902;8.590;2023-05-15T13:24:21;20.90;78.80
7494;DHT22;3788;49.902;8.590;2023-05-15T13:26:47;20.70;79.40
7494;DHT22;3788;49.902;8.590;2023-05-15T13:29:14;20.60;80.00
7494;DHT22;3788;49.902;8.590;2023-05-15T13:31:42;20.40;80.10
7494;DHT22;3788;49.902;8.590;2023-05-15T13:34:09;20.30;80.60
7494;DHT22;3788;49.902;8.590;2023-05-15T13:36:36;20.30;80.50
7494;DHT22;3788;49.902;8.590;2023-05-15T13:39:02;20.30;80.40
7494;DHT22;3788;49.902;8.590;2023-05-15T13:41:30;20.40;79.40
7494;DHT22;3788;49.902;8.590;2023-05-15T13:43:57;20.60;78.50
7494;DHT22;3788;49.902;8.590;2023-05-15T13:46:24;20.80;77.50
7494;DHT22;3788;49.902;8.590;2023-05-15T13:48:52;20.90;76.80
7494;DHT22;3788;49.902;8.590;2023-05-15T13:51:18;21.00;76.40
7494;DHT22;3788;49.902;8.590;2023-05-15T13:53:45;21.00;76.00
7494;DHT22;3788;49.902;8.590;2023-05-15T13:56:11;21.00;75.90
7494;DHT22;3788;49.902;8.590;2023-05-15T13:58:38;20.90;76.20
7494;DHT22;3788;49.902;8.590;2023-05-15T14:01:05;20.80;76.30
7494;DHT22;3788;49.902;8.590;2023-05-15T14:03:32;20.70;76.70
7494;DHT22;3788;49.902;8.590;2023-05-15T14:06:01;20.60;77.40
7494;DHT22;3788;49.902;8.590;2023-05-15T14:08:27;20.30;79.60
7494;DHT22;3788;49.902;8.590;2023-05-15T14:10:54;20.00;82.70
7494;DHT22;3788;49.902;8.590;2023-05-15T14:13:21;19.70;85.30
7494;DHT22;3788;49.902;8.590;2023-05-15T14:15:48;19.30;87.20
7494;DHT22;3788;49.902;8.590;2023-05-15T14:18:15;19.10;85.00
7494;DHT22;3788;49.902;8.590;2023-05-15T14:20:42;18.90;83.50
7494;DHT22;3788;49.902;8.590;2023-05-15T14:23:10;18.70;83.40
7494;DHT22;3788;49.902;8.590;2023-05-15T14:25:37;18.60;83.50
7494;DHT22;3788;49.902;8.590;2023-05-15T14:28:03;18.60;82.40
7494;DHT22;3788;49.902;8.590;2023-05-15T14:30:30;18.50;82.10
7494;DHT22;3788;49.902;8.590;2023-05-15T14:32:57;18.60;82.20
7494;DHT22;3788;49.902;8.590;2023-05-15T14:35:23;18.60;82.60
7494;DHT22;3788;49.902;8.590;2023-05-15T14:37:50;18.60;83.10
7494;DHT22;3788;49.902;8.590;2023-05-15T14:40:18;18.70;83.70
7494;DHT22;3788;49.902;8.590;2023-05-15T14:42:45;18.70;84.50
7494;DHT22;3788;49.902;8.590;2023-05-15T14:45:11;18.80;84.40
7494;DHT22;3788;49.902;8.590;2023-05-15T14:47:38;18.80;85.20
7494;DHT22;3788;49.902;8.590;2023-05-15T14:50:06;18.80;85.40
7494;DHT22;3788;49.902;8.590;2023-05-15T14:52:32;18.90;85.70
7494;DHT22;3788;49.902;8.590;2023-05-15T14:55:00;18.90;85.10
7494;DHT22;3788;49.902;8.590;2023-05-15T14:57:28;18.90;84.20
7494;DHT22;3788;49.902;8.590;2023-05-15T14:59:55;18.90;83.40
7494;DHT22;3788;49.902;8.590;2023-05-15T15:02:22;18.90;83.20
7494;DHT22;3788;49.902;8.590;2023-05-15T15:04:49;19.00;83.10
7494;DHT22;3788;49.902;8.590;2023-05-15T15:07:15;19.00;82.90
7494;DHT22;3788;49.902;8.590;2023-05-15T15:09:42;19.00;82.60
7494;DHT22;3788;49.902;8.590;2023-05-15T15:12:08;18.90;83.20
7494;DHT22;3788;49.902;8.590;2023-05-15T15:14:36;18.80;83.90
7494;DHT22;3788;49.902;8.590;2023-05-15T15:17:03;18.60;84.30
7494;DHT22;3788;49.902;8.590;2023-05-15T15:19:30;18.60;84.90
7494;DHT22;3788;49.902;8.590;2023-05-15T15:21:56;18.50;85.10
7494;DHT22;3788;49.902;8.590;2023-05-15T15:24:23;18.40;85.70
7494;DHT22;3788;49.902;8.590;2023-05-15T15:26:50;18.40;86.20
7494;DHT22;3788;49.902;8.590;2023-05-15T15:29:16;18.40;86.30
7494;DHT22;3788;49.902;8.590;2023-05-15T15:31:44;18.30;86.20
7494;DHT22;3788;49.902;8.590;2023-05-15T15:34:11;18.30;85.70
7494;DHT22;3788;49.902;8.590;2023-05-15T15:36:38;18.20;85.50
7494;DHT22;3788;49.902;8.590;2023-05-15T15:39:05;18.20;85.60
7494;DHT22;3788;49.902;8.590;2023-05-15T15:41:32;18.10;85.80
7494;DHT22;3788;49.902;8.590;2023-05-15T15:44:02;18.10;86.50
7494;DHT22;3788;49.902;8.590;2023-05-15T15:46:29;18.10;85.90
7494;DHT22;3788;49.902;8.590;2023-05-15T15:48:57;18.10;85.60
7494;DHT22;3788;49.902;8.590;2023-05-15T15:51:24;18.00;85.30
7494;DHT22;3788;49.902;8.590;2023-05-15T15:53:51;18.00;85.10
7494;DHT22;3788;49.902;8.590;2023-05-15T15:56:17;18.00;85.00
7494;DHT22;3788;49.902;8.590;2023-05-15T15:58:44;18.00;84.90
7494;DHT22;3788;49.902;8.590;2023-05-15T16:01:11;18.00;84.90
7494;DHT22;3788;49.902;8.590;2023-05-15T16:03:37;18.00;85.00
7494;DHT22;3788;49.902;8.590;2023-05-15T16:06:05;18.00;85.00